TimeCEST,TemperatureF,Dew PointF,Humidity,Sea Level PressureIn,VisibilityMPH,Wind Direction,Wind SpeedMPH,Gust SpeedMPH,PrecipitationIn,Events,Conditions,WindDirDegrees,DateUTC
12:25 AM,37.4,28.4,70,29.77,6.2,ENE,12.7,-,N/A,,Unknown,60,2013-04-04 22:25:00
12:55 AM,37.4,26.6,65,29.77,6.2,ENE,11.5,-,N/A,,Unknown,60,2013-04-04 22:55:00
1:25 AM,35.6,26.6,70,29.77,6.2,ENE,12.7,-,N/A,,Unknown,70,2013-04-04 23:25:00
1:55 AM,35.6,26.6,70,29.77,6.2,ENE,10.4,-,N/A,,Unknown,70,2013-04-04 23:55:00
2:00 AM,34,27,65,29.81,8,ENE,11.2,,,,Partly Cloudy,70,2013-04-05 00:00:00
2:25 AM,33.8,26.6,75,29.77,6.2,ENE,12.7,-,N/A,,Unknown,70,2013-04-05 00:25:00
2:55 AM,33.8,26.6,75,29.77,6.2,ENE,13.8,-,N/A,,Unknown,70,2013-04-05 00:55:00
3:25 AM,33.8,26.6,75,29.77,6.2,ENE,12.7,-,N/A,,Unknown,60,2013-04-05 01:25:00
3:55 AM,32.0,26.6,80,29.77,6.2,ENE,12.7,-,N/A,,Unknown,70,2013-04-05 01:55:00
4:25 AM,32.0,26.6,80,29.77,6.2,ENE,10.4,-,N/A,,Unknown,60,2013-04-05 02:25:00
4:55 AM,32.0,26.6,80,29.77,6.2,ENE,9.2,-,N/A,,Overcast,60,2013-04-05 02:55:00
5:00 AM,32,26,71,29.81,7,NE,6.7,,,,Overcast,50,2013-04-05 03:00:00
5:25 AM,32.0,26.6,80,29.77,6.2,NE,6.9,-,N/A,,Overcast,40,2013-04-05 03:25:00
5:55 AM,30.2,26.6,86,29.77,5.6,NE,8.1,-,N/A,,Overcast,40,2013-04-05 03:55:00
6:25 AM,32.0,26.6,80,29.77,5.0,NE,9.2,-,N/A,,Overcast,40,2013-04-05 04:25:00
6:55 AM,32.0,26.6,80,29.77,5.6,NE,10.4,-,N/A,,Overcast,40,2013-04-05 04:55:00
7:25 AM,33.8,28.4,81,29.77,5.6,NE,8.1,-,N/A,,Overcast,40,2013-04-05 05:25:00
7:55 AM,33.8,28.4,81,29.77,5.6,NE,9.2,-,N/A,,Overcast,50,2013-04-05 05:55:00
8:00 AM,34,28,69,29.82,6,NE,8.9,,,,Mist,50,2013-04-05 06:00:00
8:25 AM,33.8,28.4,81,29.80,6.2,NE,9.2,-,N/A,,Overcast,50,2013-04-05 06:25:00
8:55 AM,35.6,28.4,75,29.80,6.2,NE,9.2,-,N/A,,Overcast,50,2013-04-05 06:55:00
9:25 AM,35.6,28.4,75,29.80,6.2,NE,10.4,-,N/A,,Overcast,50,2013-04-05 07:25:00
9:55 AM,35.6,26.6,70,29.80,6.2,NE,12.7,-,N/A,,Overcast,50,2013-04-05 07:55:00
10:25 AM,35.6,28.4,75,29.80,6.2,NE,13.8,-,N/A,,Overcast,50,2013-04-05 08:25:00
10:55 AM,35.6,28.4,75,29.83,6.2,NE,15.0,-,N/A,,Overcast,40,2013-04-05 08:55:00
11:00 AM,36,28,63,29.85,11,NE,13.4,,,,Overcast,40,2013-04-05 09:00:00
11:25 AM,35.6,28.4,75,29.83,6.2,NE,15.0,-,N/A,,Overcast,40,2013-04-05 09:25:00
11:55 AM,35.6,28.4,75,29.83,6.2,NE,15.0,-,N/A,,Overcast,40,2013-04-05 09:55:00
12:25 PM,35.6,28.4,75,29.83,6.2,NE,15.0,-,N/A,,Overcast,40,2013-04-05 10:25:00
12:55 PM,35.6,28.4,75,29.83,6.2,NE,16.1,-,N/A,,Overcast,50,2013-04-05 10:55:00
1:25 PM,35.6,28.4,75,29.83,6.2,ENE,15.0,-,N/A,,Overcast,60,2013-04-05 11:25:00
1:55 PM,35.6,28.4,75,29.83,6.2,NE,15.0,-,N/A,,Overcast,50,2013-04-05 11:55:00
2:00 PM,36,28,64,29.88,9,NE,13.4,,,,Partly Cloudy,50,2013-04-05 12:00:00
2:25 PM,35.6,28.4,75,29.83,5.6,NNE,13.8,-,N/A,,Overcast,30,2013-04-05 12:25:00
2:55 PM,35.6,28.4,75,29.86,5.0,NNE,13.8,-,N/A,,Overcast,30,2013-04-05 12:55:00
3:25 PM,37.4,28.4,70,29.86,6.2,NE,15.0,-,N/A,,Overcast,50,2013-04-05 13:25:00
3:55 PM,37.4,28.4,70,29.86,6.2,NE,12.7,-,N/A,,Overcast,50,2013-04-05 13:55:00
4:25 PM,37.4,28.4,70,29.86,6.2,ENE,13.8,-,N/A,,Overcast,60,2013-04-05 14:25:00
4:55 PM,37.4,28.4,70,29.86,6.2,NE,12.7,-,N/A,,Overcast,50,2013-04-05 14:55:00
5:00 PM,38,29,62,29.89,6,NE,11.2,,,,Overcast,50,2013-04-05 15:00:00
5:25 PM,37.4,28.4,70,29.86,5.6,NE,11.5,-,N/A,,Overcast,50,2013-04-05 15:25:00
5:55 PM,37.4,28.4,70,29.86,6.2,NE,9.2,-,N/A,,Overcast,40,2013-04-05 15:55:00
6:25 PM,37.4,30.2,75,29.86,6.2,NE,11.5,-,N/A,,Overcast,40,2013-04-05 16:25:00
6:55 PM,37.4,30.2,75,29.89,6.2,NE,10.4,-,N/A,,Overcast,40,2013-04-05 16:55:00
7:25 PM,37.4,30.2,75,29.89,6.2,NE,8.1,-,N/A,,Overcast,50,2013-04-05 17:25:00
7:55 PM,37.4,30.2,75,29.89,6.2,NE,6.9,-,N/A,,Overcast,40,2013-04-05 17:55:00
8:00 PM,37,30,66,29.93,6,NE,6.7,,,,Partly Cloudy,50,2013-04-05 18:00:00
8:25 PM,37.4,30.2,75,29.89,6.2,NE,8.1,-,N/A,,Overcast,40,2013-04-05 18:25:00
8:55 PM,37.4,30.2,75,29.92,6.2,NE,6.9,-,N/A,,Overcast,40,2013-04-05 18:55:00
9:25 PM,37.4,30.2,75,29.92,6.2,NE,5.8,-,N/A,,Overcast,40,2013-04-05 19:25:00
9:55 PM,37.4,30.2,75,29.95,6.2,NE,5.8,-,N/A,,Overcast,40,2013-04-05 19:55:00
10:25 PM,37.4,30.2,75,29.95,6.2,NE,5.8,-,N/A,,Overcast,40,2013-04-05 20:25:00
10:55 PM,37.4,30.2,75,29.95,6.2,NE,5.8,-,N/A,,Overcast,40,2013-04-05 20:55:00
11:00 PM,37,30,67,29.99,7,NE,6.7,,,,Overcast,40,2013-04-05 21:00:00
11:25 PM,37.4,30.2,75,29.95,6.2,NE,8.1,-,N/A,,Overcast,40,2013-04-05 21:25:00
11:55 PM,37.4,30.2,75,29.95,6.2,NE,6.9,-,N/A,,Overcast,50,2013-04-05 21:55:00